sensor_id;sensor_type;location;lat;lon;timestamp;P1;durP1;ratioP1;P2;durP2;ratioP2
21215;SDS011;10765;50.954;5.322;2024-02-14T00:00:18;3.43;;;2.27;;
21215;SDS011;10765;50.954;5.322;2024-02-14T00:02:46;2.40;;;1.73;;
21215;SDS011;10765;50.954;5.322;2024-02-14T00:05:15;2.23;;;1.70;;
21215;SDS011;10765;50.954;5.322;2024-02-14T00:07:43;1.60;;;1.30;;
21215;SDS011;10765;50.954;5.322;2024-02-14T00:10:10;2.83;;;2.27;;
21215;SDS011;10765;50.954;5.322;2024-02-14T00:12:37;3.97;;;2.10;;
21215;SDS011;10765;50.954;5.322;2024-02-14T00:15:04;2.67;;;2.00;;
21215;SDS011;10765;50.954;5.322;2024-02-14T00:17:32;3.00;;;1.57;;
21215;SDS011;10765;50.954;5.322;2024-02-14T00:19:59;2.83;;;2.00;;
21215;SDS011;10765;50.954;5.322;2024-02-14T00:22:28;2.33;;;1.67;;
21215;SDS011;10765;50.954;5.322;2024-02-14T00:24:55;3.90;;;2.03;;
21215;SDS011;10765;50.954;5.322;2024-02-14T00:27:21;2.47;;;2.00;;
21215;SDS011;10765;50.954;5.322;2024-02-14T00:29:49;2.43;;;1.70;;
21215;SDS011;10765;50.954;5.322;2024-02-14T00:32:16;2.20;;;1.97;;
21215;SDS011;10765;50.954;5.322;2024-02-14T00:34:42;2.03;;;1.83;;
21215;SDS011;10765;50.954;5.322;2024-02-14T00:37:10;1.63;;;1.37;;
21215;SDS011;10765;50.954;5.322;2024-02-14T00:39:38;2.83;;;1.80;;
21215;SDS011;10765;50.954;5.322;2024-02-14T00:42:05;2.23;;;1.80;;
21215;SDS011;10765;50.954;5.322;2024-02-14T00:44:32;2.37;;;2.00;;
21215;SDS011;10765;50.954;5.322;2024-02-14T00:46:59;3.17;;;1.80;;
21215;SDS011;10765;50.954;5.322;2024-02-14T00:49:27;2.97;;;1.90;;
21215;SDS011;10765;50.954;5.322;2024-02-14T00:51:54;2.57;;;1.80;;
21215;SDS011;10765;50.954;5.322;2024-02-14T00:54:21;2.27;;;1.90;;
21215;SDS011;10765;50.954;5.322;2024-02-14T00:56:49;3.27;;;1.83;;
21215;SDS011;10765;50.954;5.322;2024-02-14T00:59:16;4.17;;;2.20;;
21215;SDS011;10765;50.954;5.322;2024-02-14T01:01:43;2.17;;;1.73;;
21215;SDS011;10765;50.954;5.322;2024-02-14T01:04:10;2.40;;;2.07;;
21215;SDS011;10765;50.954;5.322;2024-02-14T01:06:37;2.97;;;1.93;;
21215;SDS011;10765;50.954;5.322;2024-02-14T01:09:04;2.50;;;2.17;;
21215;SDS011;10765;50.954;5.322;2024-02-14T01:11:31;2.97;;;2.13;;
21215;SDS011;10765;50.954;5.322;2024-02-14T01:13:59;2.10;;;1.77;;
21215;SDS011;10765;50.954;5.322;2024-02-14T01:16:26;2.93;;;1.90;;
21215;SDS011;10765;50.954;5.322;2024-02-14T01:18:53;3.67;;;2.33;;
21215;SDS011;10765;50.954;5.322;2024-02-14T01:21:20;2.40;;;2.10;;
21215;SDS011;10765;50.954;5.322;2024-02-14T01:23:47;3.17;;;2.10;;
21215;SDS011;10765;50.954;5.322;2024-02-14T01:26:14;4.27;;;2.10;;
21215;SDS011;10765;50.954;5.322;2024-02-14T01:28:41;3.70;;;2.10;;
21215;SDS011;10765;50.954;5.322;2024-02-14T01:31:10;2.10;;;1.90;;
21215;SDS011;10765;50.954;5.322;2024-02-14T01:33:38;2.17;;;1.97;;
21215;SDS011;10765;50.954;5.322;2024-02-14T01:36:05;2.90;;;2.00;;
21215;SDS011;10765;50.954;5.322;2024-02-14T01:38:32;2.27;;;2.07;;
21215;SDS011;10765;50.954;5.322;2024-02-14T01:41:00;2.83;;;2.03;;
21215;SDS011;10765;50.954;5.322;2024-02-14T01:43:28;2.77;;;1.93;;
21215;SDS011;10765;50.954;5.322;2024-02-14T01:45:56;5.10;;;2.20;;
21215;SDS011;10765;50.954;5.322;2024-02-14T01:48:32;2.23;;;1.90;;
21215;SDS011;10765;50.954;5.322;2024-02-14T01:51:00;3.10;;;2.00;;
21215;SDS011;10765;50.954;5.322;2024-02-14T01:53:28;2.93;;;1.97;;
21215;SDS011;10765;50.954;5.322;2024-02-14T01:55:57;3.13;;;2.30;;
21215;SDS011;10765;50.954;5.322;2024-02-14T01:58:25;2.20;;;2.00;;
21215;SDS011;10765;50.954;5.322;2024-02-14T02:00:53;3.10;;;2.10;;
21215;SDS011;10765;50.954;5.322;2024-02-14T02:03:22;2.93;;;2.20;;
21215;SDS011;10765;50.954;5.322;2024-02-14T02:05:51;3.07;;;2.10;;
21215;SDS011;10765;50.954;5.322;2024-02-14T02:08:18;2.50;;;2.10;;
21215;SDS011;10765;50.954;5.322;2024-02-14T02:10:46;3.13;;;2.30;;
21215;SDS011;10765;50.954;5.322;2024-02-14T02:13:13;3.47;;;2.87;;
21215;SDS011;10765;50.954;5.322;2024-02-14T02:15:40;2.80;;;2.30;;
21215;SDS011;10765;50.954;5.322;2024-02-14T02:18:09;2.97;;;2.20;;
21215;SDS011;10765;50.954;5.322;2024-02-14T02:20:36;3.80;;;2.60;;
21215;SDS011;10765;50.954;5.322;2024-02-14T02:23:04;3.57;;;2.50;;
21215;SDS011;10765;50.954;5.322;2024-02-14T02:25:34;5.43;;;2.90;;
21215;SDS011;10765;50.954;5.322;2024-02-14T02:28:01;4.43;;;2.90;;
21215;SDS011;10765;50.954;5.322;2024-02-14T02:30:28;3.57;;;3.10;;
21215;SDS011;10765;50.954;5.322;2024-02-14T02:32:55;4.17;;;2.93;;
21215;SDS011;10765;50.954;5.322;2024-02-14T02:35:23;4.00;;;2.90;;
21215;SDS011;10765;50.954;5.322;2024-02-14T02:37:51;4.53;;;3.00;;
21215;SDS011;10765;50.954;5.322;2024-02-14T02:40:20;5.33;;;3.00;;
21215;SDS011;10765;50.954;5.322;2024-02-14T02:42:47;5.47;;;2.97;;
21215;SDS011;10765;50.954;5.322;2024-02-14T02:45:15;4.93;;;3.07;;
21215;SDS011;10765;50.954;5.322;2024-02-14T02:47:42;4.53;;;3.10;;
21215;SDS011;10765;50.954;5.322;2024-02-14T02:50:09;3.93;;;3.40;;
21215;SDS011;10765;50.954;5.322;2024-02-14T02:52:36;5.10;;;3.67;;
21215;SDS011;10765;50.954;5.322;2024-02-14T02:55:03;3.60;;;3.30;;
21215;SDS011;10765;50.954;5.322;2024-02-14T02:57:35;4.73;;;3.47;;
21215;SDS011;10765;50.954;5.322;2024-02-14T03:00:04;3.97;;;3.50;;
21215;SDS011;10765;50.954;5.322;2024-02-14T03:02:34;3.87;;;3.07;;
21215;SDS011;10765;50.954;5.322;2024-02-14T03:05:03;4.90;;;3.17;;
21215;SDS011;10765;50.954;5.322;2024-02-14T03:07:31;3.97;;;3.10;;
21215;SDS011;10765;50.954;5.322;2024-02-14T03:09:57;4.30;;;3.40;;
21215;SDS011;10765;50.954;5.322;2024-02-14T03:12:24;5.60;;;3.67;;
21215;SDS011;10765;50.954;5.322;2024-02-14T03:14:55;3.43;;;3.13;;
21215;SDS011;10765;50.954;5.322;2024-02-14T03:17:23;6.23;;;3.27;;
21215;SDS011;10765;50.954;5.322;2024-02-14T03:19:50;3.23;;;2.93;;
21215;SDS011;10765;50.954;5.322;2024-02-14T03:22:17;5.00;;;3.10;;
21215;SDS011;10765;50.954;5.322;2024-02-14T03:24:44;4.23;;;3.50;;
21215;SDS011;10765;50.954;5.322;2024-02-14T03:27:12;4.43;;;3.27;;
21215;SDS011;10765;50.954;5.322;2024-02-14T03:29:39;5.17;;;3.50;;
21215;SDS011;10765;50.954;5.322;2024-02-14T03:32:07;4.20;;;3.27;;
21215;SDS011;10765;50.954;5.322;2024-02-14T03:34:34;3.23;;;2.77;;
21215;SDS011;10765;50.954;5.322;2024-02-14T03:37:01;4.43;;;3.00;;
21215;SDS011;10765;50.954;5.322;2024-02-14T03:39:29;4.03;;;3.13;;
21215;SDS011;10765;50.954;5.322;2024-02-14T03:41:56;5.23;;;3.30;;
21215;SDS011;10765;50.954;5.322;2024-02-14T03:44:26;4.10;;;3.10;;
21215;SDS011;10765;50.954;5.322;2024-02-14T03:46:53;4.53;;;3.30;;
21215;SDS011;10765;50.954;5.322;2024-02-14T03:49:21;5.03;;;3.60;;
21215;SDS011;10765;50.954;5.322;2024-02-14T03:51:48;4.37;;;2.97;;
21215;SDS011;10765;50.954;5.322;2024-02-14T03:54:18;5.50;;;3.80;;
21215;SDS011;10765;50.954;5.322;2024-02-14T03:56:44;4.17;;;3.50;;
21215;SDS011;10765;50.954;5.322;2024-02-14T03:59:12;4.13;;;3.67;;
21215;SDS011;10765;50.954;5.322;2024-02-14T04:01:43;6.53;;;4.37;;
21215;SDS011;10765;50.954;5.322;2024-02-14T04:04:10;4.87;;;3.53;;
21215;SDS011;10765;50.954;5.322;2024-02-14T04:06:39;4.50;;;3.77;;
21215;SDS011;10765;50.954;5.322;2024-02-14T04:09:07;4.23;;;3.83;;
21215;SDS011;10765;50.954;5.322;2024-02-14T04:11:34;5.03;;;4.50;;
21215;SDS011;10765;50.954;5.322;2024-02-14T04:14:01;5.07;;;4.57;;
21215;SDS011;10765;50.954;5.322;2024-02-14T04:16:28;4.90;;;4.40;;
21215;SDS011;10765;50.954;5.322;2024-02-14T04:18:55;5.60;;;4.53;;
21215;SDS011;10765;50.954;5.322;2024-02-14T04:21:22;5.33;;;4.43;;
21215;SDS011;10765;50.954;5.322;2024-02-14T04:23:50;6.17;;;4.80;;
21215;SDS011;10765;50.954;5.322;2024-02-14T04:26:20;6.17;;;4.57;;
21215;SDS011;10765;50.954;5.322;2024-02-14T04:28:47;5.40;;;4.80;;
21215;SDS011;10765;50.954;5.322;2024-02-14T04:31:14;5.80;;;4.77;;
21215;SDS011;10765;50.954;5.322;2024-02-14T04:33:40;6.77;;;4.77;;
21215;SDS011;10765;50.954;5.322;2024-02-14T04:36:08;6.93;;;5.80;;
21215;SDS011;10765;50.954;5.322;2024-02-14T04:38:36;9.10;;;6.40;;
21215;SDS011;10765;50.954;5.322;2024-02-14T04:41:04;7.20;;;6.50;;
21215;SDS011;10765;50.954;5.322;2024-02-14T04:43:31;8.90;;;7.13;;
21215;SDS011;10765;50.954;5.322;2024-02-14T04:45:58;7.80;;;7.10;;
21215;SDS011;10765;50.954;5.322;2024-02-14T04:48:25;7.53;;;6.83;;
21215;SDS011;10765;50.954;5.322;2024-02-14T04:50:52;7.57;;;6.50;;
21215;SDS011;10765;50.954;5.322;2024-02-14T04:53:19;7.80;;;6.90;;
21215;SDS011;10765;50.954;5.322;2024-02-14T04:55:46;7.73;;;6.67;;
21215;SDS011;10765;50.954;5.322;2024-02-14T04:58:14;7.93;;;6.73;;
21215;SDS011;10765;50.954;5.322;2024-02-14T05:00:41;6.37;;;5.80;;
21215;SDS011;10765;50.954;5.322;2024-02-14T05:03:08;6.83;;;6.17;;
21215;SDS011;10765;50.954;5.322;2024-02-14T05:05:35;6.83;;;5.80;;
21215;SDS011;10765;50.954;5.322;2024-02-14T05:08:03;6.43;;;5.43;;
21215;SDS011;10765;50.954;5.322;2024-02-14T05:10:30;6.23;;;5.40;;
21215;SDS011;10765;50.954;5.322;2024-02-14T05:12:57;6.20;;;5.70;;
21215;SDS011;10765;50.954;5.322;2024-02-14T05:15:26;5.77;;;5.13;;
21215;SDS011;10765;50.954;5.322;2024-02-14T05:17:52;5.93;;;5.33;;
21215;SDS011;10765;50.954;5.322;2024-02-14T05:20:21;5.73;;;5.23;;
21215;SDS011;10765;50.954;5.322;2024-02-14T05:22:48;5.37;;;4.73;;
21215;SDS011;10765;50.954;5.322;2024-02-14T05:25:15;5.90;;;5.00;;
21215;SDS011;10765;50.954;5.322;2024-02-14T05:27:43;6.67;;;5.13;;
21215;SDS011;10765;50.954;5.322;2024-02-14T05:30:12;5.27;;;4.77;;
21215;SDS011;10765;50.954;5.322;2024-02-14T05:32:41;6.10;;;5.50;;
21215;SDS011;10765;50.954;5.322;2024-02-14T05:35:08;7.33;;;5.10;;
21215;SDS011;10765;50.954;5.322;2024-02-14T05:37:35;5.73;;;5.23;;
21215;SDS011;10765;50.954;5.322;2024-02-14T05:40:02;6.03;;;5.47;;
21215;SDS011;10765;50.954;5.322;2024-02-14T05:42:31;6.20;;;5.50;;
21215;SDS011;10765;50.954;5.322;2024-02-14T05:44:59;6.13;;;5.57;;
21215;SDS011;10765;50.954;5.322;2024-02-14T05:47:28;5.70;;;5.10;;
21215;SDS011;10765;50.954;5.322;2024-02-14T05:49:58;6.30;;;5.40;;
21215;SDS011;10765;50.954;5.322;2024-02-14T05:52:25;5.87;;;5.37;;
21215;SDS011;10765;50.954;5.322;2024-02-14T05:54:52;5.67;;;5.17;;
21215;SDS011;10765;50.954;5.322;2024-02-14T05:57:19;6.67;;;6.07;;
21215;SDS011;10765;50.954;5.322;2024-02-14T05:59:46;6.87;;;6.17;;
21215;SDS011;10765;50.954;5.322;2024-02-14T06:02:13;6.87;;;6.13;;
21215;SDS011;10765;50.954;5.322;2024-02-14T06:04:39;6.57;;;5.97;;
21215;SDS011;10765;50.954;5.322;2024-02-14T06:07:09;7.30;;;6.60;;
21215;SDS011;10765;50.954;5.322;2024-02-14T06:09:36;7.83;;;6.93;;
21215;SDS011;10765;50.954;5.322;2024-02-14T06:12:04;8.00;;;7.00;;
21215;SDS011;10765;50.954;5.322;2024-02-14T06:14:31;8.40;;;7.47;;
21215;SDS011;10765;50.954;5.322;2024-02-14T06:16:59;8.20;;;7.30;;
21215;SDS011;10765;50.954;5.322;2024-02-14T06:19:26;7.30;;;6.70;;
21215;SDS011;10765;50.954;5.322;2024-02-14T06:21:53;7.83;;;7.07;;
21215;SDS011;10765;50.954;5.322;2024-02-14T06:24:21;7.50;;;6.90;;
21215;SDS011;10765;50.954;5.322;2024-02-14T06:26:48;7.13;;;6.43;;
21215;SDS011;10765;50.954;5.322;2024-02-14T06:29:15;8.03;;;6.53;;
21215;SDS011;10765;50.954;5.322;2024-02-14T06:31:42;6.77;;;5.93;;
21215;SDS011;10765;50.954;5.322;2024-02-14T06:34:09;7.10;;;6.00;;
21215;SDS011;10765;50.954;5.322;2024-02-14T06:36:36;7.00;;;6.30;;
21215;SDS011;10765;50.954;5.322;2024-02-14T06:39:03;8.97;;;5.83;;
21215;SDS011;10765;50.954;5.322;2024-02-14T06:41:34;6.40;;;5.63;;
21215;SDS011;10765;50.954;5.322;2024-02-14T06:44:01;6.07;;;5.10;;
21215;SDS011;10765;50.954;5.322;2024-02-14T06:46:27;6.73;;;5.23;;
21215;SDS011;10765;50.954;5.322;2024-02-14T06:48:54;6.33;;;5.13;;
21215;SDS011;10765;50.954;5.322;2024-02-14T06:51:22;5.70;;;5.20;;
21215;SDS011;10765;50.954;5.322;2024-02-14T06:53:49;7.27;;;5.00;;
21215;SDS011;10765;50.954;5.322;2024-02-14T06:56:16;5.50;;;4.83;;
21215;SDS011;10765;50.954;5.322;2024-02-14T06:58:44;6.50;;;4.87;;
21215;SDS011;10765;50.954;5.322;2024-02-14T07:01:11;5.10;;;4.57;;
21215;SDS011;10765;50.954;5.322;2024-02-14T07:03:40;5.67;;;5.07;;
21215;SDS011;10765;50.954;5.322;2024-02-14T07:06:07;5.10;;;4.70;;
21215;SDS011;10765;50.954;5.322;2024-02-14T07:08:34;5.67;;;5.07;;
21215;SDS011;10765;50.954;5.322;2024-02-14T07:11:01;5.30;;;4.70;;
21215;SDS011;10765;50.954;5.322;2024-02-14T07:13:27;5.40;;;4.90;;
21215;SDS011;10765;50.954;5.322;2024-02-14T07:15:56;5.10;;;4.60;;
21215;SDS011;10765;50.954;5.322;2024-02-14T07:18:23;6.20;;;4.50;;
21215;SDS011;10765;50.954;5.322;2024-02-14T07:20:50;6.87;;;4.27;;
21215;SDS011;10765;50.954;5.322;2024-02-14T07:23:18;4.60;;;4.17;;
21215;SDS011;10765;50.954;5.322;2024-02-14T07:25:45;4.83;;;4.07;;
21215;SDS011;10765;50.954;5.322;2024-02-14T07:28:12;4.60;;;4.20;;
21215;SDS011;10765;50.954;5.322;2024-02-14T07:30:39;5.00;;;4.13;;
21215;SDS011;10765;50.954;5.322;2024-02-14T07:33:07;5.17;;;4.10;;
21215;SDS011;10765;50.954;5.322;2024-02-14T07:35:34;6.27;;;3.70;;
21215;SDS011;10765;50.954;5.322;2024-02-14T07:38:02;4.47;;;3.53;;
21215;SDS011;10765;50.954;5.322;2024-02-14T07:40:29;5.10;;;3.50;;
21215;SDS011;10765;50.954;5.322;2024-02-14T07:42:57;5.70;;;3.50;;
21215;SDS011;10765;50.954;5.322;2024-02-14T07:45:23;4.13;;;3.60;;
21215;SDS011;10765;50.954;5.322;2024-02-14T07:47:50;4.17;;;3.40;;
21215;SDS011;10765;50.954;5.322;2024-02-14T07:50:19;4.87;;;2.93;;
21215;SDS011;10765;50.954;5.322;2024-02-14T07:52:46;5.77;;;3.30;;
21215;SDS011;10765;50.954;5.322;2024-02-14T07:55:13;4.27;;;3.30;;
21215;SDS011;10765;50.954;5.322;2024-02-14T07:57:41;3.30;;;3.00;;
21215;SDS011;10765;50.954;5.322;2024-02-14T08:00:08;3.97;;;2.87;;
21215;SDS011;10765;50.954;5.322;2024-02-14T08:02:37;4.13;;;3.00;;
21215;SDS011;10765;50.954;5.322;2024-02-14T08:05:04;3.93;;;3.10;;
21215;SDS011;10765;50.954;5.322;2024-02-14T08:07:32;4.50;;;2.90;;
21215;SDS011;10765;50.954;5.322;2024-02-14T08:09:59;4.70;;;2.80;;
21215;SDS011;10765;50.954;5.322;2024-02-14T08:12:26;3.67;;;2.67;;
21215;SDS011;10765;50.954;5.322;2024-02-14T08:14:53;3.83;;;2.80;;
21215;SDS011;10765;50.954;5.322;2024-02-14T08:17:20;3.53;;;3.03;;
21215;SDS011;10765;50.954;5.322;2024-02-14T08:19:47;4.33;;;3.37;;
21215;SDS011;10765;50.954;5.322;2024-02-14T08:22:14;5.30;;;2.90;;
21215;SDS011;10765;50.954;5.322;2024-02-14T08:24:43;4.17;;;3.03;;
21215;SDS011;10765;50.954;5.322;2024-02-14T08:27:10;3.93;;;3.50;;
21215;SDS011;10765;50.954;5.322;2024-02-14T08:29:37;4.00;;;3.10;;
21215;SDS011;10765;50.954;5.322;2024-02-14T08:32:04;3.17;;;2.80;;
21215;SDS011;10765;50.954;5.322;2024-02-14T08:34:31;5.67;;;3.23;;
21215;SDS011;10765;50.954;5.322;2024-02-14T08:36:58;4.53;;;3.23;;
21215;SDS011;10765;50.954;5.322;2024-02-14T08:39:25;4.57;;;3.00;;
21215;SDS011;10765;50.954;5.322;2024-02-14T08:41:54;4.20;;;3.17;;
21215;SDS011;10765;50.954;5.322;2024-02-14T08:44:21;4.57;;;3.10;;
21215;SDS011;10765;50.954;5.322;2024-02-14T08:46:48;4.37;;;3.20;;
21215;SDS011;10765;50.954;5.322;2024-02-14T08:49:15;4.23;;;3.00;;
21215;SDS011;10765;50.954;5.322;2024-02-14T08:51:41;3.97;;;2.97;;
21215;SDS011;10765;50.954;5.322;2024-02-14T08:54:09;4.03;;;2.67;;
21215;SDS011;10765;50.954;5.322;2024-02-14T08:56:36;4.47;;;2.97;;
21215;SDS011;10765;50.954;5.322;2024-02-14T08:59:04;3.37;;;2.40;;
21215;SDS011;10765;50.954;5.322;2024-02-14T09:01:32;3.93;;;2.90;;
21215;SDS011;10765;50.954;5.322;2024-02-14T09:03:59;4.27;;;2.87;;
21215;SDS011;10765;50.954;5.322;2024-02-14T09:06:26;5.50;;;3.00;;
21215;SDS011;10765;50.954;5.322;2024-02-14T09:08:53;3.23;;;2.70;;
21215;SDS011;10765;50.954;5.322;2024-02-14T09:11:20;5.57;;;3.10;;
21215;SDS011;10765;50.954;5.322;2024-02-14T09:13:47;5.73;;;2.90;;
21215;SDS011;10765;50.954;5.322;2024-02-14T09:16:20;4.50;;;3.10;;
21215;SDS011;10765;50.954;5.322;2024-02-14T09:18:47;5.53;;;3.00;;
21215;SDS011;10765;50.954;5.322;2024-02-14T09:21:14;5.43;;;3.40;;
21215;SDS011;10765;50.954;5.322;2024-02-14T09:23:41;4.17;;;3.30;;
21215;SDS011;10765;50.954;5.322;2024-02-14T09:26:10;4.83;;;3.53;;
21215;SDS011;10765;50.954;5.322;2024-02-14T09:28:39;5.03;;;3.83;;
21215;SDS011;10765;50.954;5.322;2024-02-14T09:31:06;4.07;;;3.60;;
21215;SDS011;10765;50.954;5.322;2024-02-14T09:33:36;3.40;;;2.77;;
21215;SDS011;10765;50.954;5.322;2024-02-14T09:36:04;5.27;;;3.50;;
21215;SDS011;10765;50.954;5.322;2024-02-14T09:38:31;5.43;;;3.00;;
21215;SDS011;10765;50.954;5.322;2024-02-14T09:41:00;6.57;;;3.23;;
21215;SDS011;10765;50.954;5.322;2024-02-14T09:43:32;3.20;;;2.73;;
21215;SDS011;10765;50.954;5.322;2024-02-14T09:46:04;3.23;;;2.90;;
21215;SDS011;10765;50.954;5.322;2024-02-14T09:48:32;6.87;;;3.10;;
21215;SDS011;10765;50.954;5.322;2024-02-14T09:51:01;3.97;;;2.97;;
21215;SDS011;10765;50.954;5.322;2024-02-14T09:53:29;4.17;;;3.03;;
21215;SDS011;10765;50.954;5.322;2024-02-14T09:55:56;3.50;;;2.57;;
21215;SDS011;10765;50.954;5.322;2024-02-14T09:58:25;3.50;;;2.50;;
21215;SDS011;10765;50.954;5.322;2024-02-14T10:00:59;3.57;;;2.70;;
21215;SDS011;10765;50.954;5.322;2024-02-14T10:03:26;3.30;;;2.40;;
21215;SDS011;10765;50.954;5.322;2024-02-14T10:05:53;3.67;;;2.60;;
21215;SDS011;10765;50.954;5.322;2024-02-14T10:08:22;3.57;;;2.03;;
21215;SDS011;10765;50.954;5.322;2024-02-14T10:10:49;3.50;;;2.10;;
21215;SDS011;10765;50.954;5.322;2024-02-14T10:13:16;2.40;;;2.00;;
21215;SDS011;10765;50.954;5.322;2024-02-14T10:15:43;3.70;;;2.20;;
21215;SDS011;10765;50.954;5.322;2024-02-14T10:18:11;2.63;;;2.20;;
21215;SDS011;10765;50.954;5.322;2024-02-14T10:20:39;3.30;;;2.10;;
21215;SDS011;10765;50.954;5.322;2024-02-14T10:23:10;2.13;;;1.90;;
21215;SDS011;10765;50.954;5.322;2024-02-14T10:25:39;2.67;;;1.90;;
21215;SDS011;10765;50.954;5.322;2024-02-14T10:28:08;2.03;;;1.80;;
21215;SDS011;10765;50.954;5.322;2024-02-14T10:30:35;2.50;;;2.00;;
21215;SDS011;10765;50.954;5.322;2024-02-14T10:33:03;2.17;;;1.97;;
21215;SDS011;10765;50.954;5.322;2024-02-14T10:35:32;1.70;;;1.53;;
21215;SDS011;10765;50.954;5.322;2024-02-14T10:38:02;1.80;;;1.70;;
21215;SDS011;10765;50.954;5.322;2024-02-14T10:40:31;2.97;;;1.63;;
21215;SDS011;10765;50.954;5.322;2024-02-14T10:43:00;1.73;;;1.60;;
21215;SDS011;10765;50.954;5.322;2024-02-14T10:45:28;2.20;;;1.80;;
21215;SDS011;10765;50.954;5.322;2024-02-14T10:47:54;2.53;;;1.60;;
21215;SDS011;10765;50.954;5.322;2024-02-14T10:50:24;2.60;;;1.50;;
21215;SDS011;10765;50.954;5.322;2024-02-14T10:52:56;1.70;;;1.60;;
21215;SDS011;10765;50.954;5.322;2024-02-14T10:55:27;2.60;;;2.40;;
21215;SDS011;10765;50.954;5.322;2024-02-14T10:57:56;2.03;;;1.50;;
21215;SDS011;10765;50.954;5.322;2024-02-14T11:00:27;2.10;;;1.80;;
21215;SDS011;10765;50.954;5.322;2024-02-14T11:02:57;1.83;;;1.63;;
21215;SDS011;10765;50.954;5.322;2024-02-14T11:05:25;2.70;;;2.33;;
21215;SDS011;10765;50.954;5.322;2024-02-14T11:07:52;1.87;;;1.70;;
21215;SDS011;10765;50.954;5.322;2024-02-14T11:10:20;3.13;;;2.00;;
21215;SDS011;10765;50.954;5.322;2024-02-14T11:12:48;2.03;;;1.83;;
21215;SDS011;10765;50.954;5.322;2024-02-14T11:15:16;1.90;;;1.80;;
21215;SDS011;10765;50.954;5.322;2024-02-14T11:17:46;3.27;;;2.67;;
21215;SDS011;10765;50.954;5.322;2024-02-14T11:20:17;4.23;;;3.93;;
21215;SDS011;10765;50.954;5.322;2024-02-14T11:22:54;2.40;;;2.20;;
21215;SDS011;10765;50.954;5.322;2024-02-14T11:25:23;3.40;;;2.40;;
21215;SDS011;10765;50.954;5.322;2024-02-14T11:27:55;2.43;;;2.07;;
21215;SDS011;10765;50.954;5.322;2024-02-14T11:30:29;2.40;;;2.03;;
21215;SDS011;10765;50.954;5.322;2024-02-14T11:33:14;2.60;;;2.20;;
21215;SDS011;10765;50.954;5.322;2024-02-14T11:35:43;2.37;;;2.17;;
21215;SDS011;10765;50.954;5.322;2024-02-14T11:38:11;2.30;;;2.10;;
21215;SDS011;10765;50.954;5.322;2024-02-14T11:40:38;2.20;;;2.10;;
21215;SDS011;10765;50.954;5.322;2024-02-14T11:43:09;2.40;;;2.20;;
21215;SDS011;10765;50.954;5.322;2024-02-14T11:45:38;2.20;;;2.10;;
21215;SDS011;10765;50.954;5.322;2024-02-14T11:48:07;2.23;;;2.13;;
21215;SDS011;10765;50.954;5.322;2024-02-14T11:50:36;2.30;;;2.10;;
21215;SDS011;10765;50.954;5.322;2024-02-14T11:53:04;1.80;;;1.70;;
21215;SDS011;10765;50.954;5.322;2024-02-14T11:55:34;10.13;;;9.47;;
21215;SDS011;10765;50.954;5.322;2024-02-14T11:58:02;1.70;;;1.60;;
21215;SDS011;10765;50.954;5.322;2024-02-14T12:00:32;1.80;;;1.70;;
21215;SDS011;10765;50.954;5.322;2024-02-14T12:03:00;1.70;;;1.60;;
21215;SDS011;10765;50.954;5.322;2024-02-14T12:05:28;1.73;;;1.63;;
21215;SDS011;10765;50.954;5.322;2024-02-14T12:07:56;1.30;;;1.20;;
21215;SDS011;10765;50.954;5.322;2024-02-14T12:10:23;2.50;;;2.13;;
21215;SDS011;10765;50.954;5.322;2024-02-14T12:12:50;1.87;;;1.30;;
21215;SDS011;10765;50.954;5.322;2024-02-14T12:15:17;1.97;;;1.40;;
21215;SDS011;10765;50.954;5.322;2024-02-14T12:17:45;1.20;;;1.10;;
21215;SDS011;10765;50.954;5.322;2024-02-14T12:20:14;1.47;;;1.03;;
21215;SDS011;10765;50.954;5.322;2024-02-14T12:22:41;1.90;;;0.90;;
21215;SDS011;10765;50.954;5.322;2024-02-14T12:25:09;1.50;;;1.30;;
21215;SDS011;10765;50.954;5.322;2024-02-14T12:27:37;1.57;;;1.07;;
21215;SDS011;10765;50.954;5.322;2024-02-14T12:30:05;7.07;;;6.67;;
21215;SDS011;10765;50.954;5.322;2024-02-14T12:32:35;1.20;;;1.10;;
21215;SDS011;10765;50.954;5.322;2024-02-14T12:35:01;2.40;;;1.20;;
21215;SDS011;10765;50.954;5.322;2024-02-14T12:37:29;0.90;;;0.80;;
21215;SDS011;10765;50.954;5.322;2024-02-14T12:39:56;2.63;;;1.17;;
21215;SDS011;10765;50.954;5.322;2024-02-14T12:42:25;1.00;;;0.90;;
21215;SDS011;10765;50.954;5.322;2024-02-14T12:44:54;1.60;;;1.30;;
21215;SDS011;10765;50.954;5.322;2024-02-14T12:47:21;1.10;;;0.80;;
21215;SDS011;10765;50.954;5.322;2024-02-14T12:49:50;1.20;;;1.03;;
21215;SDS011;10765;50.954;5.322;2024-02-14T12:52:17;1.43;;;1.10;;
21215;SDS011;10765;50.954;5.322;2024-02-14T12:54:44;1.87;;;0.93;;
21215;SDS011;10765;50.954;5.322;2024-02-14T12:57:11;1.00;;;0.90;;
21215;SDS011;10765;50.954;5.322;2024-02-14T12:59:39;2.30;;;1.00;;
21215;SDS011;10765;50.954;5.322;2024-02-14T13:02:06;1.00;;;1.00;;
21215;SDS011;10765;50.954;5.322;2024-02-14T13:04:33;1.17;;;1.07;;
21215;SDS011;10765;50.954;5.322;2024-02-14T13:07:00;1.00;;;1.00;;
21215;SDS011;10765;50.954;5.322;2024-02-14T13:09:28;1.17;;;1.07;;
21215;SDS011;10765;50.954;5.322;2024-02-14T13:11:54;1.90;;;1.40;;
21215;SDS011;10765;50.954;5.322;2024-02-14T13:14:21;1.57;;;1.37;;
21215;SDS011;10765;50.954;5.322;2024-02-14T13:16:50;1.63;;;1.40;;
21215;SDS011;10765;50.954;5.322;2024-02-14T13:19:17;1.70;;;1.60;;
21215;SDS011;10765;50.954;5.322;2024-02-14T13:21:44;1.90;;;1.80;;
21215;SDS011;10765;50.954;5.322;2024-02-14T13:24:12;1.87;;;1.77;;
21215;SDS011;10765;50.954;5.322;2024-02-14T13:26:39;2.00;;;1.90;;
21215;SDS011;10765;50.954;5.322;2024-02-14T13:29:06;2.20;;;2.00;;
21215;SDS011;10765;50.954;5.322;2024-02-14T13:31:33;2.80;;;2.07;;
21215;SDS011;10765;50.954;5.322;2024-02-14T13:34:02;2.90;;;2.60;;
21215;SDS011;10765;50.954;5.322;2024-02-14T13:36:30;2.73;;;2.50;;
21215;SDS011;10765;50.954;5.322;2024-02-14T13:38:57;2.60;;;2.40;;
21215;SDS011;10765;50.954;5.322;2024-02-14T13:41:25;3.00;;;2.80;;
21215;SDS011;10765;50.954;5.322;2024-02-14T13:43:52;2.60;;;2.40;;
21215;SDS011;10765;50.954;5.322;2024-02-14T13:46:19;3.17;;;2.80;;
21215;SDS011;10765;50.954;5.322;2024-02-14T13:48:46;3.37;;;3.07;;
21215;SDS011;10765;50.954;5.322;2024-02-14T13:51:14;3.53;;;3.23;;
21215;SDS011;10765;50.954;5.322;2024-02-14T13:53:41;3.10;;;2.90;;
21215;SDS011;10765;50.954;5.322;2024-02-14T13:56:08;3.93;;;3.40;;
21215;SDS011;10765;50.954;5.322;2024-02-14T13:58:35;3.40;;;3.10;;
21215;SDS011;10765;50.954;5.322;2024-02-14T14:01:03;3.70;;;3.40;;
21215;SDS011;10765;50.954;5.322;2024-02-14T14:03:32;9.87;;;8.83;;
21215;SDS011;10765;50.954;5.322;2024-02-14T14:06:01;3.40;;;3.10;;
21215;SDS011;10765;50.954;5.322;2024-02-14T14:08:32;3.40;;;3.10;;
21215;SDS011;10765;50.954;5.322;2024-02-14T14:11:00;4.23;;;3.70;;
21215;SDS011;10765;50.954;5.322;2024-02-14T14:13:28;3.27;;;3.03;;
21215;SDS011;10765;50.954;5.322;2024-02-14T14:15:56;5.37;;;3.23;;
21215;SDS011;10765;50.954;5.322;2024-02-14T14:18:23;4.30;;;3.03;;
21215;SDS011;10765;50.954;5.322;2024-02-14T14:20:50;3.80;;;3.50;;
21215;SDS011;10765;50.954;5.322;2024-02-14T14:23:17;3.47;;;3.20;;
21215;SDS011;10765;50.954;5.322;2024-02-14T14:25:45;3.50;;;3.20;;
21215;SDS011;10765;50.954;5.322;2024-02-14T14:28:12;4.23;;;3.50;;
21215;SDS011;10765;50.954;5.322;2024-02-14T14:30:40;4.93;;;3.43;;
21215;SDS011;10765;50.954;5.322;2024-02-14T14:33:07;3.67;;;3.37;;
21215;SDS011;10765;50.954;5.322;2024-02-14T14:35:34;3.60;;;3.30;;
21215;SDS011;10765;50.954;5.322;2024-02-14T14:38:01;3.47;;;3.17;;
21215;SDS011;10765;50.954;5.322;2024-02-14T14:40:29;4.17;;;3.50;;
21215;SDS011;10765;50.954;5.322;2024-02-14T14:42:57;3.80;;;3.50;;
21215;SDS011;10765;50.954;5.322;2024-02-14T14:45:24;3.93;;;3.03;;
21215;SDS011;10765;50.954;5.322;2024-02-14T14:47:53;5.10;;;3.90;;
21215;SDS011;10765;50.954;5.322;2024-02-14T14:50:21;4.10;;;3.80;;